Maria S. Merian — DBBT — position and weather

sailwx.info

Track history (hours):
 
Tides and Currents Weather Stations Pressure Air Temp Water Temp Dewpoint Dewpoint Depression Visibility Wind Speed Wind Dir Waves Ship Positions

Oceanographic research ship Maria S. Merian (Germany)

Last reported at 2017-Aug-18 17:00 UTC. Time now 2017-Aug-18 18:20 UTC.
Position N 70°30' W 068°36'.

Length 94.8 m; beam 19.2 m; draft 6.5 m.

Type: Other ship. MMSI: 211753000.

Wind from 310 at 25 knots

Barometer 1006.5 mb
Air temperature 3.8 ° C
Dewpoint 1.8 ° C
Water temperature 1.9 ° C

Date/timePositionNaut miles runAvg speedWind from/ knotsBaromVisibWave heightAir tempDewpointWater temp
2017-Aug-18 17:00N 70°30' W 068°36'6 6.3 310 / 251006.5 3.8 1.8 1.9
2017-Aug-18 16:00N 70°24' W 068°30'2 2.0 330 / 251006.1 2.9 1.0 1.9
2017-Aug-18 15:00N 70°24' W 068°36'7 7.2 320 / 271006.3 2.4 0.8 1.9
2017-Aug-18 14:00N 70°18' W 068°24'2 2.0 320 / 251006.0 2.6 1.0 1.8
2017-Aug-18 13:00N 70°18' W 068°18'4 4.0 330 / 291005.6 1.4 0.3 1.4
2017-Aug-18 12:00N 70°18' W 068°30'6 6.3 320 / 271005.9 3.0-0.6 2.1
2017-Aug-18 11:00N 70°24' W 068°36'0 0.0 310 / 251005.2 2.9-0.8 1.9
2017-Aug-18 10:00N 70°24' W 068°36'6 6.0 320 / 271005.5 2.6-0.5 1.9
2017-Aug-18 09:00N 70°18' W 068°36'4 4.0 320 / 141005.2 3.0-1.2 2.0
2017-Aug-18 08:00N 70°18' W 068°48'2 2.0 320 / 121005.4 3.2-1.4 2.2
2017-Aug-18 07:00N 70°18' W 068°42'2 2.0 330 / 271004.7 3.0-1.0 2.0
2017-Aug-18 06:00N 70°18' W 068°48'7 7.2 320 / 121005.5 4.1-1.5 2.3
2017-Aug-18 05:00N 70°12' W 069°00'4 4.1 320 / 191005.1 3.6-1.4 3.3
2017-Aug-18 04:00N 70°12' W 069°12'2 2.0 330 / 101005.4 3.8-1.9 3.0
2017-Aug-18 03:00N 70°12' W 069°18'0 0.0 350 / 141005.6 4.1-1.9 2.4
2017-Aug-18 02:00N 70°12' W 069°18'2 2.0 330 / 161006.0 4.8-2.4 2.9
2017-Aug-18 01:00N 70°12' W 069°12'4 4.1 330 / 191006.3 4.4-1.5 3.5
2017-Aug-18 00:00N 70°12' W 069°00'0 0.0 340 / 191006.3 4.3-1.8 3.5
2017-Aug-17 23:00N 70°12' W 069°00'4 4.1 310 / 231006.4 4.5-2.1 3.5
2017-Aug-17 22:00N 70°12' W 069°12'8 8.1 340 / 211007.3 4.9-1.3 2.2
2017-Aug-17 21:00N 70°12' W 069°36'2 2.0 010 / 121007.2 6.0-2.8 3.1
2017-Aug-17 20:00N 70°12' W 069°30'2 2.0 360 / 191006.6 5.6-1.2 3.4
2017-Aug-17 19:00N 70°12' W 069°36'0 0.0 340 / 101006.7 7.1-2.4 3.7
2017-Aug-17 18:00N 70°12' W 069°36'6 6.3 090 / 101006.9 6.4-1.9 3.6
2017-Aug-17 17:00N 70°06' W 069°42'0 0.0 070 / 171006.8 5.7-1.9 3.9
2017-Aug-17 16:00N 70°06' W 069°42'2 2.0 040 / 101007.4 4.8-0.0 3.6
2017-Aug-17 15:00N 70°06' W 069°48'0 0.0 040 / 101007.6 4.7-1.3 3.2
2017-Aug-17 14:00N 70°06' W 069°48'1010.1 050 / 61008.1 4.8-1.1 3.7
2017-Aug-17 13:00N 70°12' W 069°24'1010.1 1008.7 4.8-0.9 3.4
2017-Aug-17 12:00N 70°18' W 069°00'1010.1 320 / 161009.3 5.0-2.3 3.9
2017-Aug-17 11:00N 70°12' W 069°24'1010.1 040 / 81009.4 4.6-2.2 3.9
2017-Aug-17 10:00N 70°06' W 069°48'6 6.0 060 / 141009.4 5.2-1.6 2.9
2017-Aug-17 09:00N 70°00' W 069°48'4 4.1 320 / 171009.3 5.0-0.8 3.3
2017-Aug-17 08:00N 70°00' W 070°00'0 0.0 070 / 81009.6 6.7-1.7 3.4
2017-Aug-17 07:00N 70°00' W 070°00'0 0.0 060 / 81010.1 6.0-1.1 2.7
2017-Aug-17 06:00N 70°00' W 070°00'7 7.3 090 / 61010.1 6.1-0.6 2.7
2017-Aug-17 05:00N 69°54' W 070°12'0 0.0 030 / 81009.8 4.9 0.4 3.1
2017-Aug-17 04:00N 69°54' W 070°12'2 2.1 030 / 61009.4 5.1-0.6 3.1
2017-Aug-17 03:00N 69°54' W 070°18'0 0.0 1009.6 5.9 0.8 4.6
2017-Aug-17 02:00N 69°54' W 070°18'9 8.6 200 / 61010.0 5.2 0.5 3.4
2017-Aug-17 01:00N 70°00' W 070°00'6 6.3 290 / 41010.6 4.7-0.5 3.3
2017-Aug-17 00:00N 70°06' W 069°54'2 2.0 1010.7 4.5-0.0 4.3
2017-Aug-16 23:00N 70°06' W 070°00'0 0.0 260 / 41011.0 5.2-0.8 3.5
2017-Aug-16 22:00N 70°06' W 070°00'6 6.3 220 / 41011.8 4.9-0.0 3.7
2017-Aug-16 21:00N 70°00' W 070°06'6 6.0 020 / 81012.2 4.7 0.8 4.0
2017-Aug-16 20:00N 70°06' W 070°06'6 6.1 050 / 101012.0 4.7-0.1 3.6
2017-Aug-16 19:00N 70°06' W 069°48'1010.1 050 / 121012.4 5.7-0.8 3.8
2017-Aug-16 18:00N 70°12' W 069°24'1010.1 070 / 81012.6 5.0 1.1 3.3
2017-Aug-16 17:00N 70°18' W 069°00'8 8.1 130 / 41013.1 4.4-0.6 3.9
2017-Aug-16 16:00N 70°18' W 068°36'2 2.0 1013.2 3.7-0.3 2.8
2017-Aug-16 15:00N 70°18' W 068°30'0 0.0 020 / 61013.3 4.2-0.8 4.0
2017-Aug-16 14:00N 70°18' W 068°30'0 0.0 360 / 141013.8 4.1-1.1 3.9
2017-Aug-16 13:00N 70°18' W 068°30'2 2.0 360 / 161014.1 3.4-1.0 2.9
2017-Aug-16 12:00N 70°18' W 068°36'4 4.0 360 / 141014.2 3.5-1.2 3.2
2017-Aug-16 11:00N 70°18' W 068°24'6 6.0 360 / 141014.6 2.8 0.3 4.0
2017-Aug-16 10:00N 70°12' W 068°24'1010.1 350 / 171014.1 3.2 0.7 3.8
2017-Aug-16 09:00N 70°18' W 068°48'6 6.3 350 / 81014.1 4.0-0.1 4.1
2017-Aug-16 08:00N 70°12' W 068°42'6 6.1 340 / 121014.0 3.8-0.1 4.2
2017-Aug-16 07:00N 70°12' W 068°24'1010.2 360 / 191013.8 3.4 0.7 3.9
2017-Aug-16 06:00N 70°12' W 068°54'2 2.0 190 / 41013.7 3.6 0.4 4.5
2017-Aug-16 05:00N 70°12' W 068°48'8 8.1 260 / 101013.2 3.3 0.2 4.5
2017-Aug-16 04:00N 70°12' W 068°24'0 0.0 310 / 101013.1 3.6 0.3 4.1
2017-Aug-16 03:00N 70°12' W 068°24'6 6.1 330 / 141012.8 3.5 0.2 3.9
2017-Aug-16 02:00N 70°12' W 068°42'6 6.1 270 / 81013.3 3.7 1.9 4.8
2017-Aug-16 01:00N 70°12' W 069°00'7 7.2 140 / 61013.2 2.5 0.9 2.6
2017-Aug-16 00:00N 70°18' W 068°48'6 6.1 030 / 61012.7 3.1 0.7 4.3
2017-Aug-15 23:00N 70°18' W 068°30'2 2.0 360 / 141012.4 1.5 0.7 3.6
2017-Aug-15 22:00N 70°18' W 068°24'7 7.2 010 / 101012.2 2.8 2.1 3.3
2017-Aug-15 21:00N 70°24' W 068°36'6 6.0 360 / 101012.2 1.9 1.0 1.7
2017-Aug-15 20:00N 70°30' W 068°36'0 0.0 350 / 121012.0 2.1 1.2 1.3
2017-Aug-15 19:00N 70°30' W 068°36'0 0.0 360 / 121011.5 2.8 1.9 1.2
2017-Aug-15 18:00N 70°30' W 068°36'0 0.0 360 / 101011.1 3.4 2.1 1.3
2017-Aug-15 17:00N 70°30' W 068°36'0 0.0 360 / 121011.4 3.6 2.5 1.2
2017-Aug-15 16:00N 70°30' W 068°36'0 0.0 360 / 101011.5 4.1 3.0 1.6
2017-Aug-15 15:00N 70°30' W 068°36'0 0.0 010 / 81011.4 4.4 3.3 1.7
2017-Aug-15 14:00N 70°30' W 068°36'6 6.0 010 / 81011.1 4.6 3.5 3.2
2017-Aug-15 13:00N 70°24' W 068°36'7 7.2 010 / 121011.4 4.5 3.8 4.6
2017-Aug-15 12:00N 70°18' W 068°24'6 6.3 020 / 171011.2 3.9 3.7 2.7
2017-Aug-15 11:00N 70°24' W 068°18'1212.2 330 / 141011.3 3.8 3.5 1.1
2017-Aug-15 10:00N 70°36' W 068°12'7 7.2 320 / 101011.4 3.5 3.6 2.2
2017-Aug-15 09:00N 70°42' W 068°00'6 5.9 320 / 121011.3 3.7 3.5 2.6
2017-Aug-15 08:00N 70°42' W 067°42'1313.4 330 / 141010.4 4.4 4.1 2.3
2017-Aug-15 07:00N 70°54' W 067°24'6 6.3 300 / 141010.7 4.8 3.8 2.6
2017-Aug-15 06:00N 70°48' W 067°30'8 8.4 250 / 61010.5 5.1 3.2 2.0
2017-Aug-15 05:00N 70°42' W 067°48'10 9.9 230 / 41010.6 5.7 3.2 2.5
2017-Aug-15 04:00N 70°48' W 067°24'0 0.0 020 / 81010.2 6.3 4.7 2.4
2017-Aug-15 03:00N 70°48' W 067°24'8 8.4 070 / 101010.0 5.4 2.7 2.6
2017-Aug-15 02:00N 70°42' W 067°42'7 7.2 050 / 121009.3 6.7 2.7 2.2
2017-Aug-15 01:00N 70°48' W 067°30'8 8.4 010 / 121009.0 5.8 3.0 2.2
2017-Aug-15 00:00N 70°54' W 067°12'6 6.3 340 / 161008.4 5.8 2.6 2.6
2017-Aug-14 23:00N 70°48' W 067°18'8 8.4 330 / 101008.3 8.1 1.5 1.8
2017-Aug-14 22:00N 70°42' W 067°36'1312.6 310 / 81007.7 8.2 2.1 2.5
2017-Aug-14 21:00N 70°30' W 067°48'1313.4 260 / 61007.1 14.8 3.2 2.8
2017-Aug-14 20:00N 70°42' W 067°30'8 8.4 220 / 101007.0 10.6 3.2 2.7
2017-Aug-14 19:00N 70°48' W 067°12'4 3.9 220 / 61007.2 5.5 1.8 1.9
2017-Aug-14 18:00N 70°48' W 067°24'1312.6 240 / 101007.4 6.0 0.4 1.9
2017-Aug-14 17:00N 70°36' W 067°36'7 7.2 230 / 161007.6 6.2 2.3 2.4
2017-Aug-14 16:00N 70°30' W 067°48'0 0.0 230 / 251008.3 7.4 2.7 1.7
2017-Aug-14 15:00N 70°30' W 067°48'1312.6 220 / 191008.4 7.5 3.1 2.1
2017-Aug-14 14:00N 70°42' W 067°36'8 8.4 180 / 141009.1 5.7 3.4 2.1
2017-Aug-14 13:00N 70°48' W 067°18'2 2.0 180 / 171009.8 4.2 2.3 1.7
2017-Aug-14 12:00N 70°48' W 067°24'8 8.4 170 / 161010.1 3.2 1.4 1.6
2017-Aug-14 11:00N 70°42' W 067°42'1212.2 190 / 171010.5 5.5 2.5 2.3
2017-Aug-14 10:00N 70°30' W 067°48'0 0.0 180 / 161011.3 2.6 0.8 1.8
2017-Aug-14 09:00N 70°30' W 067°48'1212.2 160 / 171011.5 2.0 0.9 2.1
2017-Aug-14 08:00N 70°42' W 067°42'10 9.9 160 / 211011.8 2.3 1.3 2.1
2017-Aug-14 07:00N 70°48' W 067°18'0 0.0 160 / 231012.1 2.1 1.4 1.3
2017-Aug-14 06:00N 70°48' W 067°18'10 9.9 170 / 211012.7 2.3 1.5 1.4
2017-Aug-14 05:00N 70°42' W 067°42'1312.6 160 / 211013.0 2.8 1.7 2.4
2017-Aug-14 04:00N 70°30' W 067°54'0 0.0 160 / 211013.5 2.5 1.6 2.2
2017-Aug-14 03:00N 70°30' W 067°54'7 7.2 150 / 251013.7 2.4 1.4 2.0
2017-Aug-14 02:00N 70°36' W 067°42'1313.4 160 / 251013.9 3.1 1.9 2.2
2017-Aug-14 01:00N 70°48' W 067°24'2 2.0 150 / 251014.4 3.3 2.0 1.9
2017-Aug-14 00:00N 70°48' W 067°18'10 9.9 160 / 211015.0 3.5 2.3 2.7
2017-Aug-13 23:00N 70°42' W 067°42'7 7.2 160 / 231015.2 3.7 2.4 2.4
2017-Aug-13 22:00N 70°36' W 067°54'6 6.3 150 / 211015.9 3.9 2.4 2.5
2017-Aug-13 21:00N 70°30' W 068°00'7 7.2 140 / 231016.0 4.0 2.2 2.1
2017-Aug-13 20:00N 70°36' W 067°48'6 6.0 150 / 251015.5 4.4 2.6 2.3
2017-Aug-13 19:00N 70°42' W 067°48'1312.6 150 / 191015.9 4.0 2.6 2.4
2017-Aug-13 18:00N 70°30' W 068°00'6 6.0 140 / 191016.0 3.5 2.3 2.5
2017-Aug-13 17:00N 70°24' W 068°00'1212.2 140 / 191016.4 3.0 1.8 2.0
2017-Aug-13 16:00N 70°36' W 067°54'6 6.0 140 / 211016.8 3.3 2.2 2.2
2017-Aug-13 15:00N 70°42' W 067°54'6 6.3 140 / 191017.2 2.8 1.6 2.0
2017-Aug-13 14:00N 70°36' W 068°00'1212.0 140 / 161017.8 2.5 1.4 2.1
2017-Aug-13 13:00N 70°24' W 068°00'2 2.0 140 / 141018.1 1.6 0.7 1.7
2017-Aug-13 12:00N 70°24' W 068°06'6 6.0 150 / 121018.2 1.9 1.1 1.5
2017-Aug-13 11:00N 70°30' W 068°06'6 6.3 150 / 121018.1 2.0 1.2 1.9
2017-Aug-13 10:00N 70°24' W 068°12'7 7.2 150 / 61018.1 2.1 1.4 1.5
2017-Aug-13 09:00N 70°30' W 068°00'1212.2 140 / 121018.8 1.4 1.0 2.4
2017-Aug-13 08:00N 70°42' W 067°54'6 6.3 140 / 121018.8 1.0 0.7 2.2
2017-Aug-13 07:00N 70°36' W 068°00'7 7.2 140 / 121018.8 1.1 0.7 2.1
2017-Aug-13 06:00N 70°30' W 068°12'6 6.3 130 / 101019.0 0.8 0.8 1.9
2017-Aug-13 05:00N 70°24' W 068°18'6 6.3 120 / 101018.7 1.3 1.2 2.4
2017-Aug-13 04:00N 70°30' W 068°12'0 0.0 150 / 81018.7 0.7 0.6 1.8
2017-Aug-13 03:00N 70°30' W 068°12'7 7.2 160 / 41018.9 0.8 0.7 1.5
2017-Aug-13 02:00N 70°36' W 068°00'0 0.0 130 / 41019.1 1.1 1.0 2.0
2017-Aug-13 01:00N 70°36' W 068°00'2 2.0 130 / 41018.9 0.7 0.6 2.4
2017-Aug-13 00:00N 70°36' W 068°06'2 2.0 1018.7 0.9 0.7 1.8
2017-Aug-12 23:00N 70°36' W 068°12'2 2.0 1018.6 0.9 0.8 1.4
2017-Aug-12 22:00N 70°36' W 068°06'0 0.0 1018.6 1.1 0.9 2.2
2017-Aug-12 21:00N 70°36' W 068°06'6 6.0 020 / 21018.4 1.1 0.9 1.6
2017-Aug-12 20:00N 70°42' W 068°06'8 8.4 1018.3 0.9 0.8 2.0
2017-Aug-12 19:00N 70°48' W 067°48'10 9.9 1017.9 1.0 0.8 2.2
2017-Aug-12 18:00N 70°54' W 067°24'0 0.0 010 / 21017.6 0.7 0.6 2.8
2017-Aug-12 17:00N 70°54' W 067°24'8 8.4 070 / 21017.5 0.4 0.3 2.8
2017-Aug-12 16:00N 70°48' W 067°42'8 8.4 020 / 41017.4 0.8 0.6 2.3
2017-Aug-12 15:00N 70°42' W 068°00'1312.6 340 / 41017.3 0.7 0.5 1.3
2017-Aug-12 14:00N 70°30' W 068°12'6 6.3 010 / 61017.1 -0.0-0.2 2.9
2017-Aug-12 13:00N 70°24' W 068°18'2 2.0 030 / 61016.5 -0.3-0.3 2.3
2017-Aug-12 12:00N 70°24' W 068°12'8 8.1 070 / 61016.0 -0.2-0.4 1.8
2017-Aug-12 11:00N 70°24' W 067°48'1211.7 110 / 41015.5 -0.3-0.5 3.1
2017-Aug-12 10:00N 70°30' W 067°18'9 8.5 140 / 81014.9 0.1-0.0 1.4
2017-Aug-12 09:00N 70°24' W 067°36'2 2.0 140 / 81014.9 -0.2-0.4 3.4
2017-Aug-12 08:00N 70°24' W 067°42'0 0.0 140 / 81014.6 0.6 0.6 3.4
2017-Aug-12 07:00N 70°24' W 067°42'1010.0 130 / 101014.0 -0.3-0.3 3.3
2017-Aug-12 06:00N 70°30' W 067°18'1010.0 150 / 101014.1 -0.5-0.5 1.5
2017-Aug-12 05:00N 70°24' W 067°42'0 0.0 140 / 101013.6 -0.5-0.4 3.2
2017-Aug-12 04:00N 70°24' W 067°42'1010.1 130 / 121013.4 0.2-0.0 3.2
2017-Aug-12 03:00N 70°24' W 068°12'2 2.0 120 / 121013.1 1.5 1.5 3.4
2017-Aug-12 02:00N 70°24' W 068°06'1010.1 130 / 121013.3 1.9 1.6 2.8
2017-Aug-12 01:00N 70°24' W 067°36'6 3.2 120 / 101013.5 2.5 2.6 3.2
2017-Aug-11 23:00N 70°30' W 067°30'1211.7 120 / 81013.2 2.5 2.1 2.9
2017-Aug-11 22:00N 70°24' W 068°00'1010.1 130 / 81013.0 2.9 2.4 3.7
2017-Aug-11 21:00N 70°18' W 068°24'2 2.0 080 / 81012.8 3.5 2.4 3.7
2017-Aug-11 20:00N 70°18' W 068°18'1010.1 070 / 61012.6 4.1 3.1 4.3
2017-Aug-11 19:00N 70°24' W 067°54'1010.1 090 / 41012.6 2.8 2.3 3.1
2017-Aug-11 18:00N 70°18' W 068°18'0 0.0 040 / 41012.5 3.3 2.7 4.2
2017-Aug-11 17:00N 70°18' W 068°18'1010.1 060 / 41012.6 3.2 2.8 3.2
2017-Aug-11 16:00N 70°24' W 067°54'1010.0 130 / 41012.8 2.5 2.3 3.0
2017-Aug-11 15:00N 70°30' W 067°30'8 8.0 140 / 61012.7 1.4 1.2 1.6
2017-Aug-11 14:00N 70°30' W 067°54'8 8.5 1012.6 2.2 2.0 2.3
2017-Aug-11 13:00N 70°36' W 068°12'6 6.0 350 / 81012.3 1.8 1.5 0.9
2017-Aug-11 12:00N 70°42' W 068°12'2 2.0 350 / 61012.1 2.3 2.0-0.1
2017-Aug-11 11:00N 70°42' W 068°18'6 6.3 320 / 101011.8 2.0 1.8 1.0
2017-Aug-11 10:00N 70°48' W 068°24'8 8.4 310 / 81012.0 1.8 1.7 1.3
2017-Aug-11 09:00N 70°54' W 068°42'10 9.8 310 / 121011.7 4.1 3.6 3.3
2017-Aug-11 08:00N 70°54' W 069°12'10 9.9 310 / 121011.6 4.2 3.7 3.9
2017-Aug-11 07:00N 71°00' W 069°36'8 7.8 310 / 141011.4 3.4 3.1 3.0
2017-Aug-11 06:00N 71°00' W 070°00'10 9.8 320 / 81011.5 3.2 3.0 3.4
2017-Aug-11 05:00N 71°06' W 070°24'7 7.1 330 / 81011.5 3.5 3.2 3.6
2017-Aug-11 04:00N 71°12' W 070°36'10 9.8 330 / 101011.3 3.4 3.2 2.6
2017-Aug-11 03:00N 71°18' W 070°12'6 6.0 340 / 121011.1 2.8 2.6 3.3
2017-Aug-11 02:00N 71°24' W 070°12'6 6.0 330 / 121010.9 2.8 2.5 3.1
2017-Aug-11 01:00N 71°30' W 070°12'6 5.7 330 / 121010.9 2.6 1.9 2.0
2017-Aug-11 00:00N 71°30' W 070°30'8 7.6 320 / 141010.6 3.6 3.2 2.8
2017-Aug-10 23:00N 71°30' W 070°54'10 9.7 340 / 171010.4 4.7 3.7 3.1
2017-Aug-10 22:00N 71°36' W 071°18'7 7.1 330 / 161010.4 4.0 3.4 2.7
2017-Aug-10 21:00N 71°42' W 071°30'6 6.3 310 / 101010.2 3.6 3.0 2.8
2017-Aug-10 20:00N 71°48' W 071°36'1212.1 310 / 121010.0 3.5 3.1 2.8
2017-Aug-10 19:00N 72°00' W 071°42'6 6.3 330 / 61009.7 4.6 3.6 4.1
2017-Aug-10 18:00N 72°06' W 071°36'1212.1 360 / 81009.3 5.0 3.6 3.6
2017-Aug-10 17:00N 72°18' W 071°30'1312.5 030 / 61009.3 4.2 3.4 4.2
2017-Aug-10 16:00N 72°30' W 071°18'7 7.0 060 / 121009.3 3.8 2.8 3.2
2017-Aug-10 15:00N 72°36' W 071°06'9 9.3 070 / 101009.4 5.8 4.4 5.0
2017-Aug-10 14:00N 72°42' W 070°42'1110.7 090 / 121009.4 5.5 4.1 4.8
2017-Aug-10 13:00N 72°48' W 070°12'9 9.3 090 / 141009.4 5.2 4.4 5.0
2017-Aug-10 12:00N 72°54' W 069°48'9 9.2 100 / 141009.8 5.4 4.6 5.2
2017-Aug-10 11:00N 73°00' W 069°24'1110.6 100 / 141010.0 5.4 4.8 4.5
2017-Aug-10 10:00N 73°06' W 068°54'1110.6 100 / 121010.2 4.8 4.5 4.4
2017-Aug-10 09:00N 73°12' W 068°24'8 7.9 100 / 121010.3 4.7 4.5 4.8
2017-Aug-10 08:00N 73°18' W 068°06'9 8.6 100 / 121010.7 3.8 3.7 5.1
2017-Aug-10 07:00N 73°18' W 067°36'1211.9 120 / 101010.9 3.2 3.0 5.2
2017-Aug-10 06:00N 73°24' W 067°00'9 8.6 120 / 121010.9 3.4 3.5 6.7
2017-Aug-10 05:00N 73°24' W 066°30'9 9.1 110 / 101011.1 3.0 2.8 5.2
2017-Aug-10 04:00N 73°30' W 066°06'1212.1 110 / 101011.3 2.7 2.6 5.2
2017-Aug-10 03:00N 73°42' W 066°12'8 8.4 100 / 81011.9 2.4 2.3 5.7
2017-Aug-10 02:00N 73°42' W 066°42'8 8.4 110 / 61011.9 2.6 2.5 5.6
2017-Aug-10 01:00N 73°42' W 067°12'1010.1 120 / 81012.0 2.7 2.6 5.6
2017-Aug-10 00:00N 73°42' W 067°48'1211.7 100 / 61012.0 2.5 2.3 5.9
2017-Aug-09 23:00N 73°48' W 068°24'8 8.4 100 / 41011.6 2.9 2.7 6.1
2017-Aug-09 22:00N 73°48' W 068°54'8 8.4 150 / 41011.6 2.6 2.5 5.2
2017-Aug-09 21:00N 73°48' W 069°24'1010.0 160 / 41011.5 2.8 2.7 5.3
2017-Aug-09 20:00N 73°48' W 070°00'8 8.4 1011.3 3.3 3.2 4.4
2017-Aug-09 19:00N 73°48' W 070°30'1212.1 1010.9 3.4 3.2 4.2
2017-Aug-09 18:00N 74°00' W 070°24'3 3.3 240 / 61010.7 3.4 3.2 4.5
2017-Aug-09 17:00N 74°00' W 070°36'7 6.9 240 / 61010.5 4.0 3.8 4.3
2017-Aug-09 16:00N 73°54' W 070°48'8 8.3 260 / 61010.6 3.9 3.8 4.5
2017-Aug-09 15:00N 73°54' W 071°18'1010.0 270 / 81010.6 4.1 3.9 4.5
2017-Aug-09 14:00N 73°54' W 071°54'8 8.3 280 / 81010.5 4.1 4.0 4.0
2017-Aug-09 13:00N 73°54' W 072°24'1212.0 270 / 101010.4 4.1 4.0 3.8
2017-Aug-09 12:00N 73°42' W 072°24'6 6.2 280 / 101010.4 3.9 3.8 4.4
2017-Aug-09 11:00N 73°36' W 072°30'6 6.2 270 / 101010.1 3.8 3.6 3.4
2017-Aug-09 10:00N 73°30' W 072°36'6 6.0 290 / 101010.1 3.9 3.8 4.4
2017-Aug-09 09:00N 73°36' W 072°36'6 6.2 300 / 81009.8 3.5 3.5 4.5
2017-Aug-09 08:00N 73°42' W 072°30'6 6.0 300 / 121009.4 3.6 3.5 4.1
2017-Aug-09 07:00N 73°48' W 072°30'1212.0 300 / 101009.0 3.7 3.6 3.9
2017-Aug-09 06:00N 74°00' W 072°30'6 6.2 290 / 81008.4 4.0 3.8 4.1
2017-Aug-09 05:00N 74°06' W 072°36'2 1.6 300 / 81008.0 4.4 4.4 4.9
2017-Aug-09 04:00N 74°06' W 072°42'6 6.2 280 / 81008.1 4.1 3.9 4.3
2017-Aug-09 03:00N 74°00' W 072°36'1212.0 250 / 61008.1 4.1 4.0 3.9
2017-Aug-09 02:00N 73°48' W 072°36'0 0.0 260 / 61008.3 4.4 4.2 4.6
2017-Aug-09 01:00N 73°48' W 072°36'6 6.0 180 / 61008.4 4.8 4.7 4.6
2017-Aug-09 00:00N 73°54' W 072°36'8 8.3 160 / 41008.5 4.4 4.3 4.5
2017-Aug-08 23:00N 73°54' W 073°06'1010.0 130 / 61008.7 4.2 4.1 3.6
2017-Aug-08 22:00N 73°54' W 073°42'1211.6 110 / 101008.5 4.2 4.0 4.4
2017-Aug-08 21:00N 74°00' W 074°18'10 9.9 100 / 101008.5 4.0 3.9 3.5
2017-Aug-08 20:00N 74°00' W 074°54'10 9.9 090 / 101008.6 4.1 3.9 5.2
2017-Aug-08 19:00N 74°00' W 075°30'1211.6 050 / 101008.9 4.2 3.9 4.4
2017-Aug-08 18:00N 74°06' W 076°06'10 9.9 080 / 81009.7 3.7 3.5 3.1
2017-Aug-08 17:00N 74°06' W 076°42'   050 / 101009.6 3.1 2.9 3.1
Track history (hours):
 
Tides and Currents Weather Stations Pressure Air Temp Water Temp Dewpoint Dewpoint Depression Visibility Wind Speed Wind Dir Waves Ship Positions

Oceanographic research ship Maria S. Merian (Germany)

Last reported at 2017-Aug-18 17:00 UTC. Time now 2017-Aug-18 18:20 UTC.
Position N 70°30' W 068°36'.

Length 94.8 m; beam 19.2 m; draft 6.5 m.

Type: Other ship. MMSI: 211753000.

Wind from 310 at 25 knots

Barometer 1006.5 mb
Air temperature 3.8 ° C
Dewpoint 1.8 ° C
Water temperature 1.9 ° C

Date/timePositionNaut miles runAvg speedWind from/ knotsBaromVisibWave heightAir tempDewpointWater temp
2017-Aug-18 17:00N 70°30' W 068°36'6 6.3 310 / 251006.5 3.8 1.8 1.9
2017-Aug-18 16:00N 70°24' W 068°30'2 2.0 330 / 251006.1 2.9 1.0 1.9
2017-Aug-18 15:00N 70°24' W 068°36'7 7.2 320 / 271006.3 2.4 0.8 1.9
2017-Aug-18 14:00N 70°18' W 068°24'2 2.0 320 / 251006.0 2.6 1.0 1.8
2017-Aug-18 13:00N 70°18' W 068°18'4 4.0 330 / 291005.6 1.4 0.3 1.4
2017-Aug-18 12:00N 70°18' W 068°30'6 6.3 320 / 271005.9 3.0-0.6 2.1
2017-Aug-18 11:00N 70°24' W 068°36'0 0.0 310 / 251005.2 2.9-0.8 1.9
2017-Aug-18 10:00N 70°24' W 068°36'6 6.0 320 / 271005.5 2.6-0.5 1.9
2017-Aug-18 09:00N 70°18' W 068°36'4 4.0 320 / 141005.2 3.0-1.2 2.0
2017-Aug-18 08:00N 70°18' W 068°48'2 2.0 320 / 121005.4 3.2-1.4 2.2
2017-Aug-18 07:00N 70°18' W 068°42'2 2.0 330 / 271004.7 3.0-1.0 2.0
2017-Aug-18 06:00N 70°18' W 068°48'7 7.2 320 / 121005.5 4.1-1.5 2.3
2017-Aug-18 05:00N 70°12' W 069°00'4 4.1 320 / 191005.1 3.6-1.4 3.3
2017-Aug-18 04:00N 70°12' W 069°12'2 2.0 330 / 101005.4 3.8-1.9 3.0
2017-Aug-18 03:00N 70°12' W 069°18'0 0.0 350 / 141005.6 4.1-1.9 2.4
2017-Aug-18 02:00N 70°12' W 069°18'2 2.0 330 / 161006.0 4.8-2.4 2.9
2017-Aug-18 01:00N 70°12' W 069°12'4 4.1 330 / 191006.3 4.4-1.5 3.5
2017-Aug-18 00:00N 70°12' W 069°00'0 0.0 340 / 191006.3 4.3-1.8 3.5
2017-Aug-17 23:00N 70°12' W 069°00'4 4.1 310 / 231006.4 4.5-2.1 3.5
2017-Aug-17 22:00N 70°12' W 069°12'8 8.1 340 / 211007.3 4.9-1.3 2.2
2017-Aug-17 21:00N 70°12' W 069°36'2 2.0 010 / 121007.2 6.0-2.8 3.1
2017-Aug-17 20:00N 70°12' W 069°30'2 2.0 360 / 191006.6 5.6-1.2 3.4
2017-Aug-17 19:00N 70°12' W 069°36'0 0.0 340 / 101006.7 7.1-2.4 3.7
2017-Aug-17 18:00N 70°12' W 069°36'6 6.3 090 / 101006.9 6.4-1.9 3.6
2017-Aug-17 17:00N 70°06' W 069°42'0 0.0 070 / 171006.8 5.7-1.9 3.9
2017-Aug-17 16:00N 70°06' W 069°42'2 2.0 040 / 101007.4 4.8-0.0 3.6
2017-Aug-17 15:00N 70°06' W 069°48'0 0.0 040 / 101007.6 4.7-1.3 3.2
2017-Aug-17 14:00N 70°06' W 069°48'1010.1 050 / 61008.1 4.8-1.1 3.7
2017-Aug-17 13:00N 70°12' W 069°24'1010.1 1008.7 4.8-0.9 3.4
2017-Aug-17 12:00N 70°18' W 069°00'1010.1 320 / 161009.3 5.0-2.3 3.9
2017-Aug-17 11:00N 70°12' W 069°24'1010.1 040 / 81009.4 4.6-2.2 3.9
2017-Aug-17 10:00N 70°06' W 069°48'6 6.0 060 / 141009.4 5.2-1.6 2.9
2017-Aug-17 09:00N 70°00' W 069°48'4 4.1 320 / 171009.3 5.0-0.8 3.3
2017-Aug-17 08:00N 70°00' W 070°00'0 0.0 070 / 81009.6 6.7-1.7 3.4
2017-Aug-17 07:00N 70°00' W 070°00'0 0.0 060 / 81010.1 6.0-1.1 2.7
2017-Aug-17 06:00N 70°00' W 070°00'7 7.3 090 / 61010.1 6.1-0.6 2.7
2017-Aug-17 05:00N 69°54' W 070°12'0 0.0 030 / 81009.8 4.9 0.4 3.1
2017-Aug-17 04:00N 69°54' W 070°12'2 2.1 030 / 61009.4 5.1-0.6 3.1
2017-Aug-17 03:00N 69°54' W 070°18'0 0.0 1009.6 5.9 0.8 4.6
2017-Aug-17 02:00N 69°54' W 070°18'9 8.6 200 / 61010.0 5.2 0.5 3.4
2017-Aug-17 01:00N 70°00' W 070°00'6 6.3 290 / 41010.6 4.7-0.5 3.3
2017-Aug-17 00:00N 70°06' W 069°54'2 2.0 1010.7 4.5-0.0 4.3
2017-Aug-16 23:00N 70°06' W 070°00'0 0.0 260 / 41011.0 5.2-0.8 3.5
2017-Aug-16 22:00N 70°06' W 070°00'6 6.3 220 / 41011.8 4.9-0.0 3.7
2017-Aug-16 21:00N 70°00' W 070°06'6 6.0 020 / 81012.2 4.7 0.8 4.0
2017-Aug-16 20:00N 70°06' W 070°06'6 6.1 050 / 101012.0 4.7-0.1 3.6
2017-Aug-16 19:00N 70°06' W 069°48'1010.1 050 / 121012.4 5.7-0.8 3.8
2017-Aug-16 18:00N 70°12' W 069°24'1010.1 070 / 81012.6 5.0 1.1 3.3
2017-Aug-16 17:00N 70°18' W 069°00'8 8.1 130 / 41013.1 4.4-0.6 3.9
2017-Aug-16 16:00N 70°18' W 068°36'2 2.0 1013.2 3.7-0.3 2.8
2017-Aug-16 15:00N 70°18' W 068°30'0 0.0 020 / 61013.3 4.2-0.8 4.0
2017-Aug-16 14:00N 70°18' W 068°30'0 0.0 360 / 141013.8 4.1-1.1 3.9
2017-Aug-16 13:00N 70°18' W 068°30'2 2.0 360 / 161014.1 3.4-1.0 2.9
2017-Aug-16 12:00N 70°18' W 068°36'4 4.0 360 / 141014.2 3.5-1.2 3.2
2017-Aug-16 11:00N 70°18' W 068°24'6 6.0 360 / 141014.6 2.8 0.3 4.0
2017-Aug-16 10:00N 70°12' W 068°24'1010.1 350 / 171014.1 3.2 0.7 3.8
2017-Aug-16 09:00N 70°18' W 068°48'6 6.3 350 / 81014.1 4.0-0.1 4.1
2017-Aug-16 08:00N 70°12' W 068°42'6 6.1 340 / 121014.0 3.8-0.1 4.2
2017-Aug-16 07:00N 70°12' W 068°24'1010.2 360 / 191013.8 3.4 0.7 3.9
2017-Aug-16 06:00N 70°12' W 068°54'2 2.0 190 / 41013.7 3.6 0.4 4.5
2017-Aug-16 05:00N 70°12' W 068°48'8 8.1 260 / 101013.2 3.3 0.2 4.5
2017-Aug-16 04:00N 70°12' W 068°24'0 0.0 310 / 101013.1 3.6 0.3 4.1
2017-Aug-16 03:00N 70°12' W 068°24'6 6.1 330 / 141012.8 3.5 0.2 3.9
2017-Aug-16 02:00N 70°12' W 068°42'6 6.1 270 / 81013.3 3.7 1.9 4.8
2017-Aug-16 01:00N 70°12' W 069°00'7 7.2 140 / 61013.2 2.5 0.9 2.6
2017-Aug-16 00:00N 70°18' W 068°48'6 6.1 030 / 61012.7 3.1 0.7 4.3
2017-Aug-15 23:00N 70°18' W 068°30'2 2.0 360 / 141012.4 1.5 0.7 3.6
2017-Aug-15 22:00N 70°18' W 068°24'7 7.2 010 / 101012.2 2.8 2.1 3.3
2017-Aug-15 21:00N 70°24' W 068°36'6 6.0 360 / 101012.2 1.9 1.0 1.7
2017-Aug-15 20:00N 70°30' W 068°36'0 0.0 350 / 121012.0 2.1 1.2 1.3
2017-Aug-15 19:00N 70°30' W 068°36'0 0.0 360 / 121011.5 2.8 1.9 1.2
2017-Aug-15 18:00N 70°30' W 068°36'0 0.0 360 / 101011.1 3.4 2.1 1.3
2017-Aug-15 17:00N 70°30' W 068°36'0 0.0 360 / 121011.4 3.6 2.5 1.2
2017-Aug-15 16:00N 70°30' W 068°36'0 0.0 360 / 101011.5 4.1 3.0 1.6
2017-Aug-15 15:00N 70°30' W 068°36'0 0.0 010 / 81011.4 4.4 3.3 1.7
2017-Aug-15 14:00N 70°30' W 068°36'6 6.0 010 / 81011.1 4.6 3.5 3.2
2017-Aug-15 13:00N 70°24' W 068°36'7 7.2 010 / 121011.4 4.5 3.8 4.6
2017-Aug-15 12:00N 70°18' W 068°24'6 6.3 020 / 171011.2 3.9 3.7 2.7
2017-Aug-15 11:00N 70°24' W 068°18'1212.2 330 / 141011.3 3.8 3.5 1.1
2017-Aug-15 10:00N 70°36' W 068°12'7 7.2 320 / 101011.4 3.5 3.6 2.2
2017-Aug-15 09:00N 70°42' W 068°00'6 5.9 320 / 121011.3 3.7 3.5 2.6
2017-Aug-15 08:00N 70°42' W 067°42'1313.4 330 / 141010.4 4.4 4.1 2.3
2017-Aug-15 07:00N 70°54' W 067°24'6 6.3 300 / 141010.7 4.8 3.8 2.6
2017-Aug-15 06:00N 70°48' W 067°30'8 8.4 250 / 61010.5 5.1 3.2 2.0
2017-Aug-15 05:00N 70°42' W 067°48'10 9.9 230 / 41010.6 5.7 3.2 2.5
2017-Aug-15 04:00N 70°48' W 067°24'0 0.0 020 / 81010.2 6.3 4.7 2.4
2017-Aug-15 03:00N 70°48' W 067°24'8 8.4 070 / 101010.0 5.4 2.7 2.6
2017-Aug-15 02:00N 70°42' W 067°42'7 7.2 050 / 121009.3 6.7 2.7 2.2
2017-Aug-15 01:00N 70°48' W 067°30'8 8.4 010 / 121009.0 5.8 3.0 2.2
2017-Aug-15 00:00N 70°54' W 067°12'6 6.3 340 / 161008.4 5.8 2.6 2.6
2017-Aug-14 23:00N 70°48' W 067°18'8 8.4 330 / 101008.3 8.1 1.5 1.8
2017-Aug-14 22:00N 70°42' W 067°36'1312.6 310 / 81007.7 8.2 2.1 2.5
2017-Aug-14 21:00N 70°30' W 067°48'1313.4 260 / 61007.1 14.8 3.2 2.8
2017-Aug-14 20:00N 70°42' W 067°30'8 8.4 220 / 101007.0 10.6 3.2 2.7
2017-Aug-14 19:00N 70°48' W 067°12'4 3.9 220 / 61007.2 5.5 1.8 1.9
2017-Aug-14 18:00N 70°48' W 067°24'1312.6 240 / 101007.4 6.0 0.4 1.9
2017-Aug-14 17:00N 70°36' W 067°36'7 7.2 230 / 161007.6 6.2 2.3 2.4
2017-Aug-14 16:00N 70°30' W 067°48'0 0.0 230 / 251008.3 7.4 2.7 1.7
2017-Aug-14 15:00N 70°30' W 067°48'1312.6 220 / 191008.4 7.5 3.1 2.1
2017-Aug-14 14:00N 70°42' W 067°36'8 8.4 180 / 141009.1 5.7 3.4 2.1
2017-Aug-14 13:00N 70°48' W 067°18'2 2.0 180 / 171009.8 4.2 2.3 1.7
2017-Aug-14 12:00N 70°48' W 067°24'8 8.4 170 / 161010.1 3.2 1.4 1.6
2017-Aug-14 11:00N 70°42' W 067°42'1212.2 190 / 171010.5 5.5 2.5 2.3
2017-Aug-14 10:00N 70°30' W 067°48'0 0.0 180 / 161011.3 2.6 0.8 1.8
2017-Aug-14 09:00N 70°30' W 067°48'1212.2 160 / 171011.5 2.0 0.9 2.1
2017-Aug-14 08:00N 70°42' W 067°42'10 9.9 160 / 211011.8 2.3 1.3 2.1
2017-Aug-14 07:00N 70°48' W 067°18'0 0.0 160 / 231012.1 2.1 1.4 1.3
2017-Aug-14 06:00N 70°48' W 067°18'10 9.9 170 / 211012.7 2.3 1.5 1.4
2017-Aug-14 05:00N 70°42' W 067°42'1312.6 160 / 211013.0 2.8 1.7 2.4
2017-Aug-14 04:00N 70°30' W 067°54'0 0.0 160 / 211013.5 2.5 1.6 2.2
2017-Aug-14 03:00N 70°30' W 067°54'7 7.2 150 / 251013.7 2.4 1.4 2.0
2017-Aug-14 02:00N 70°36' W 067°42'1313.4 160 / 251013.9 3.1 1.9 2.2
2017-Aug-14 01:00N 70°48' W 067°24'2 2.0 150 / 251014.4 3.3 2.0 1.9
2017-Aug-14 00:00N 70°48' W 067°18'10 9.9 160 / 211015.0 3.5 2.3 2.7
2017-Aug-13 23:00N 70°42' W 067°42'7 7.2 160 / 231015.2 3.7 2.4 2.4
2017-Aug-13 22:00N 70°36' W 067°54'6 6.3 150 / 211015.9 3.9 2.4 2.5
2017-Aug-13 21:00N 70°30' W 068°00'7 7.2 140 / 231016.0 4.0 2.2 2.1
2017-Aug-13 20:00N 70°36' W 067°48'6 6.0 150 / 251015.5 4.4 2.6 2.3
2017-Aug-13 19:00N 70°42' W 067°48'1312.6 150 / 191015.9 4.0 2.6 2.4
2017-Aug-13 18:00N 70°30' W 068°00'6 6.0 140 / 191016.0 3.5 2.3 2.5
2017-Aug-13 17:00N 70°24' W 068°00'1212.2 140 / 191016.4 3.0 1.8 2.0
2017-Aug-13 16:00N 70°36' W 067°54'6 6.0 140 / 211016.8 3.3 2.2 2.2
2017-Aug-13 15:00N 70°42' W 067°54'6 6.3 140 / 191017.2 2.8 1.6 2.0
2017-Aug-13 14:00N 70°36' W 068°00'1212.0 140 / 161017.8 2.5 1.4 2.1
2017-Aug-13 13:00N 70°24' W 068°00'2 2.0 140 / 141018.1 1.6 0.7 1.7
2017-Aug-13 12:00N 70°24' W 068°06'6 6.0 150 / 121018.2 1.9 1.1 1.5
2017-Aug-13 11:00N 70°30' W 068°06'6 6.3 150 / 121018.1 2.0 1.2 1.9
2017-Aug-13 10:00N 70°24' W 068°12'7 7.2 150 / 61018.1 2.1 1.4 1.5
2017-Aug-13 09:00N 70°30' W 068°00'1212.2 140 / 121018.8 1.4 1.0 2.4
2017-Aug-13 08:00N 70°42' W 067°54'6 6.3 140 / 121018.8 1.0 0.7 2.2
2017-Aug-13 07:00N 70°36' W 068°00'7 7.2 140 / 121018.8 1.1 0.7 2.1
2017-Aug-13 06:00N 70°30' W 068°12'6 6.3 130 / 101019.0 0.8 0.8 1.9
2017-Aug-13 05:00N 70°24' W 068°18'6 6.3 120 / 101018.7 1.3 1.2 2.4
2017-Aug-13 04:00N 70°30' W 068°12'0 0.0 150 / 81018.7 0.7 0.6 1.8
2017-Aug-13 03:00N 70°30' W 068°12'7 7.2 160 / 41018.9 0.8 0.7 1.5
2017-Aug-13 02:00N 70°36' W 068°00'0 0.0 130 / 41019.1 1.1 1.0 2.0
2017-Aug-13 01:00N 70°36' W 068°00'2 2.0 130 / 41018.9 0.7 0.6 2.4
2017-Aug-13 00:00N 70°36' W 068°06'2 2.0 1018.7 0.9 0.7 1.8
2017-Aug-12 23:00N 70°36' W 068°12'2 2.0 1018.6 0.9 0.8 1.4
2017-Aug-12 22:00N 70°36' W 068°06'0 0.0 1018.6 1.1 0.9 2.2
2017-Aug-12 21:00N 70°36' W 068°06'6 6.0 020 / 21018.4 1.1 0.9 1.6
2017-Aug-12 20:00N 70°42' W 068°06'8 8.4 1018.3 0.9 0.8 2.0
2017-Aug-12 19:00N 70°48' W 067°48'10 9.9 1017.9 1.0 0.8 2.2
2017-Aug-12 18:00N 70°54' W 067°24'0 0.0 010 / 21017.6 0.7 0.6 2.8
2017-Aug-12 17:00N 70°54' W 067°24'8 8.4 070 / 21017.5 0.4 0.3 2.8
2017-Aug-12 16:00N 70°48' W 067°42'8 8.4 020 / 41017.4 0.8 0.6 2.3
2017-Aug-12 15:00N 70°42' W 068°00'1312.6 340 / 41017.3 0.7 0.5 1.3
2017-Aug-12 14:00N 70°30' W 068°12'6 6.3 010 / 61017.1 -0.0-0.2 2.9
2017-Aug-12 13:00N 70°24' W 068°18'2 2.0 030 / 61016.5 -0.3-0.3 2.3
2017-Aug-12 12:00N 70°24' W 068°12'8 8.1 070 / 61016.0 -0.2-0.4 1.8
2017-Aug-12 11:00N 70°24' W 067°48'1211.7 110 / 41015.5 -0.3-0.5 3.1
2017-Aug-12 10:00N 70°30' W 067°18'9 8.5 140 / 81014.9 0.1-0.0 1.4
2017-Aug-12 09:00N 70°24' W 067°36'2 2.0 140 / 81014.9 -0.2-0.4 3.4
2017-Aug-12 08:00N 70°24' W 067°42'0 0.0 140 / 81014.6 0.6 0.6 3.4
2017-Aug-12 07:00N 70°24' W 067°42'1010.0 130 / 101014.0 -0.3-0.3 3.3
2017-Aug-12 06:00N 70°30' W 067°18'1010.0 150 / 101014.1 -0.5-0.5 1.5
2017-Aug-12 05:00N 70°24' W 067°42'0 0.0 140 / 101013.6 -0.5-0.4 3.2
2017-Aug-12 04:00N 70°24' W 067°42'1010.1 130 / 121013.4 0.2-0.0 3.2
2017-Aug-12 03:00N 70°24' W 068°12'2 2.0 120 / 121013.1 1.5 1.5 3.4
2017-Aug-12 02:00N 70°24' W 068°06'1010.1 130 / 121013.3 1.9 1.6 2.8
2017-Aug-12 01:00N 70°24' W 067°36'6 3.2 120 / 101013.5 2.5 2.6 3.2
2017-Aug-11 23:00N 70°30' W 067°30'1211.7 120 / 81013.2 2.5 2.1 2.9
2017-Aug-11 22:00N 70°24' W 068°00'1010.1 130 / 81013.0 2.9 2.4 3.7
2017-Aug-11 21:00N 70°18' W 068°24'2 2.0 080 / 81012.8 3.5 2.4 3.7
2017-Aug-11 20:00N 70°18' W 068°18'1010.1 070 / 61012.6 4.1 3.1 4.3
2017-Aug-11 19:00N 70°24' W 067°54'1010.1 090 / 41012.6 2.8 2.3 3.1
2017-Aug-11 18:00N 70°18' W 068°18'0 0.0 040 / 41012.5 3.3 2.7 4.2
2017-Aug-11 17:00N 70°18' W 068°18'1010.1 060 / 41012.6 3.2 2.8 3.2
2017-Aug-11 16:00N 70°24' W 067°54'1010.0 130 / 41012.8 2.5 2.3 3.0
2017-Aug-11 15:00N 70°30' W 067°30'8 8.0 140 / 61012.7 1.4 1.2 1.6
2017-Aug-11 14:00N 70°30' W 067°54'8 8.5 1012.6 2.2 2.0 2.3
2017-Aug-11 13:00N 70°36' W 068°12'6 6.0 350 / 81012.3 1.8 1.5 0.9
2017-Aug-11 12:00N 70°42' W 068°12'2 2.0 350 / 61012.1 2.3 2.0-0.1
2017-Aug-11 11:00N 70°42' W 068°18'6 6.3 320 / 101011.8 2.0 1.8 1.0
2017-Aug-11 10:00N 70°48' W 068°24'8 8.4 310 / 81012.0 1.8 1.7 1.3
2017-Aug-11 09:00N 70°54' W 068°42'10 9.8 310 / 121011.7 4.1 3.6 3.3
2017-Aug-11 08:00N 70°54' W 069°12'10 9.9 310 / 121011.6 4.2 3.7 3.9
2017-Aug-11 07:00N 71°00' W 069°36'8 7.8 310 / 141011.4 3.4 3.1 3.0
2017-Aug-11 06:00N 71°00' W 070°00'10 9.8 320 / 81011.5 3.2 3.0 3.4
2017-Aug-11 05:00N 71°06' W 070°24'7 7.1 330 / 81011.5 3.5 3.2 3.6
2017-Aug-11 04:00N 71°12' W 070°36'10 9.8 330 / 101011.3 3.4 3.2 2.6
2017-Aug-11 03:00N 71°18' W 070°12'6 6.0 340 / 121011.1 2.8 2.6 3.3
2017-Aug-11 02:00N 71°24' W 070°12'6 6.0 330 / 121010.9 2.8 2.5 3.1
2017-Aug-11 01:00N 71°30' W 070°12'6 5.7 330 / 121010.9 2.6 1.9 2.0
2017-Aug-11 00:00N 71°30' W 070°30'8 7.6 320 / 141010.6 3.6 3.2 2.8
2017-Aug-10 23:00N 71°30' W 070°54'10 9.7 340 / 171010.4 4.7 3.7 3.1
2017-Aug-10 22:00N 71°36' W 071°18'7 7.1 330 / 161010.4 4.0 3.4 2.7
2017-Aug-10 21:00N 71°42' W 071°30'6 6.3 310 / 101010.2 3.6 3.0 2.8
2017-Aug-10 20:00N 71°48' W 071°36'1212.1 310 / 121010.0 3.5 3.1 2.8
2017-Aug-10 19:00N 72°00' W 071°42'6 6.3 330 / 61009.7 4.6 3.6 4.1
2017-Aug-10 18:00N 72°06' W 071°36'1212.1 360 / 81009.3 5.0 3.6 3.6
2017-Aug-10 17:00N 72°18' W 071°30'1312.5 030 / 61009.3 4.2 3.4 4.2
2017-Aug-10 16:00N 72°30' W 071°18'7 7.0 060 / 121009.3 3.8 2.8 3.2
2017-Aug-10 15:00N 72°36' W 071°06'9 9.3 070 / 101009.4 5.8 4.4 5.0
2017-Aug-10 14:00N 72°42' W 070°42'1110.7 090 / 121009.4 5.5 4.1 4.8
2017-Aug-10 13:00N 72°48' W 070°12'9 9.3 090 / 141009.4 5.2 4.4 5.0
2017-Aug-10 12:00N 72°54' W 069°48'9 9.2 100 / 141009.8 5.4 4.6 5.2
2017-Aug-10 11:00N 73°00' W 069°24'1110.6 100 / 141010.0 5.4 4.8 4.5
2017-Aug-10 10:00N 73°06' W 068°54'1110.6 100 / 121010.2 4.8 4.5 4.4
2017-Aug-10 09:00N 73°12' W 068°24'8 7.9 100 / 121010.3 4.7 4.5 4.8
2017-Aug-10 08:00N 73°18' W 068°06'9 8.6 100 / 121010.7 3.8 3.7 5.1
2017-Aug-10 07:00N 73°18' W 067°36'1211.9 120 / 101010.9 3.2 3.0 5.2
2017-Aug-10 06:00N 73°24' W 067°00'9 8.6 120 / 121010.9 3.4 3.5 6.7
2017-Aug-10 05:00N 73°24' W 066°30'9 9.1 110 / 101011.1 3.0 2.8 5.2
2017-Aug-10 04:00N 73°30' W 066°06'1212.1 110 / 101011.3 2.7 2.6 5.2
2017-Aug-10 03:00N 73°42' W 066°12'8 8.4 100 / 81011.9 2.4 2.3 5.7
2017-Aug-10 02:00N 73°42' W 066°42'8 8.4 110 / 61011.9 2.6 2.5 5.6
2017-Aug-10 01:00N 73°42' W 067°12'1010.1 120 / 81012.0 2.7 2.6 5.6
2017-Aug-10 00:00N 73°42' W 067°48'1211.7 100 / 61012.0 2.5 2.3 5.9
2017-Aug-09 23:00N 73°48' W 068°24'8 8.4 100 / 41011.6 2.9 2.7 6.1
2017-Aug-09 22:00N 73°48' W 068°54'8 8.4 150 / 41011.6 2.6 2.5 5.2
2017-Aug-09 21:00N 73°48' W 069°24'1010.0 160 / 41011.5 2.8 2.7 5.3
2017-Aug-09 20:00N 73°48' W 070°00'8 8.4 1011.3 3.3 3.2 4.4
2017-Aug-09 19:00N 73°48' W 070°30'1212.1 1010.9 3.4 3.2 4.2
2017-Aug-09 18:00N 74°00' W 070°24'3 3.3 240 / 61010.7 3.4 3.2 4.5
2017-Aug-09 17:00N 74°00' W 070°36'7 6.9 240 / 61010.5 4.0 3.8 4.3
2017-Aug-09 16:00N 73°54' W 070°48'8 8.3 260 / 61010.6 3.9 3.8 4.5
2017-Aug-09 15:00N 73°54' W 071°18'1010.0 270 / 81010.6 4.1 3.9 4.5
2017-Aug-09 14:00N 73°54' W 071°54'8 8.3 280 / 81010.5 4.1 4.0 4.0
2017-Aug-09 13:00N 73°54' W 072°24'1212.0 270 / 101010.4 4.1 4.0 3.8
2017-Aug-09 12:00N 73°42' W 072°24'6 6.2 280 / 101010.4 3.9 3.8 4.4
2017-Aug-09 11:00N 73°36' W 072°30'6 6.2 270 / 101010.1 3.8 3.6 3.4
2017-Aug-09 10:00N 73°30' W 072°36'6 6.0 290 / 101010.1 3.9 3.8 4.4
2017-Aug-09 09:00N 73°36' W 072°36'6 6.2 300 / 81009.8 3.5 3.5 4.5
2017-Aug-09 08:00N 73°42' W 072°30'6 6.0 300 / 121009.4 3.6 3.5 4.1
2017-Aug-09 07:00N 73°48' W 072°30'1212.0 300 / 101009.0 3.7 3.6 3.9
2017-Aug-09 06:00N 74°00' W 072°30'6 6.2 290 / 81008.4 4.0 3.8 4.1
2017-Aug-09 05:00N 74°06' W 072°36'2 1.6 300 / 81008.0 4.4 4.4 4.9
2017-Aug-09 04:00N 74°06' W 072°42'6 6.2 280 / 81008.1 4.1 3.9 4.3
2017-Aug-09 03:00N 74°00' W 072°36'1212.0 250 / 61008.1 4.1 4.0 3.9
2017-Aug-09 02:00N 73°48' W 072°36'0 0.0 260 / 61008.3 4.4 4.2 4.6
2017-Aug-09 01:00N 73°48' W 072°36'6 6.0 180 / 61008.4 4.8 4.7 4.6
2017-Aug-09 00:00N 73°54' W 072°36'8 8.3 160 / 41008.5 4.4 4.3 4.5
2017-Aug-08 23:00N 73°54' W 073°06'1010.0 130 / 61008.7 4.2 4.1 3.6
2017-Aug-08 22:00N 73°54' W 073°42'1211.6 110 / 101008.5 4.2 4.0 4.4
2017-Aug-08 21:00N 74°00' W 074°18'10 9.9 100 / 101008.5 4.0 3.9 3.5
2017-Aug-08 20:00N 74°00' W 074°54'10 9.9 090 / 101008.6 4.1 3.9 5.2
2017-Aug-08 19:00N 74°00' W 075°30'1211.6 050 / 101008.9 4.2 3.9 4.4
2017-Aug-08 18:00N 74°06' W 076°06'10 9.9 080 / 81009.7 3.7 3.5 3.1
2017-Aug-08 17:00N 74°06' W 076°42'   050 / 101009.6 3.1 2.9 3.1

Dump ship's entire track history